sensor_id;sensor_type;location;lat;lon;timestamp;P1;durP1;ratioP1;P2;durP2;ratioP2
28311;SDS011;15572;48.810;9.148;2023-06-19T00:04:05;8.93;;;6.18;;
28311;SDS011;15572;48.810;9.148;2023-06-19T00:09:03;8.13;;;6.18;;
28311;SDS011;15572;48.810;9.148;2023-06-19T00:14:00;6.88;;;6.18;;
28311;SDS011;15572;48.810;9.148;2023-06-19T00:18:56;8.88;;;6.47;;
28311;SDS011;15572;48.810;9.148;2023-06-19T00:23:53;8.27;;;6.13;;
28311;SDS011;15572;48.810;9.148;2023-06-19T00:28:51;8.05;;;5.97;;
28311;SDS011;15572;48.810;9.148;2023-06-19T00:33:47;6.22;;;5.55;;
28311;SDS011;15572;48.810;9.148;2023-06-19T00:38:44;8.25;;;6.13;;
28311;SDS011;15572;48.810;9.148;2023-06-19T00:43:40;6.95;;;5.25;;
28311;SDS011;15572;48.810;9.148;2023-06-19T00:48:38;8.10;;;5.78;;
28311;SDS011;15572;48.810;9.148;2023-06-19T00:53:35;6.93;;;5.60;;
28311;SDS011;15572;48.810;9.148;2023-06-19T00:58:31;6.95;;;5.05;;
28311;SDS011;15572;48.810;9.148;2023-06-19T01:03:28;5.90;;;5.22;;
28311;SDS011;15572;48.810;9.148;2023-06-19T01:08:31;6.18;;;5.40;;
28311;SDS011;15572;48.810;9.148;2023-06-19T01:13:40;7.82;;;5.90;;
28311;SDS011;15572;48.810;9.148;2023-06-19T01:18:40;7.95;;;5.65;;
28311;SDS011;15572;48.810;9.148;2023-06-19T01:23:39;6.25;;;4.95;;
28311;SDS011;15572;48.810;9.148;2023-06-19T01:28:36;9.13;;;4.90;;
28311;SDS011;15572;48.810;9.148;2023-06-19T01:33:34;5.22;;;4.20;;
28311;SDS011;15572;48.810;9.148;2023-06-19T01:38:33;9.80;;;5.00;;
28311;SDS011;15572;48.810;9.148;2023-06-19T01:43:33;9.00;;;4.90;;
28311;SDS011;15572;48.810;9.148;2023-06-19T01:48:30;7.20;;;4.88;;
28311;SDS011;15572;48.810;9.148;2023-06-19T01:53:26;6.57;;;4.38;;
28311;SDS011;15572;48.810;9.148;2023-06-19T01:58:24;7.28;;;4.25;;
28311;SDS011;15572;48.810;9.148;2023-06-19T02:03:22;6.47;;;4.55;;
28311;SDS011;15572;48.810;9.148;2023-06-19T02:08:18;5.50;;;4.32;;
28311;SDS011;15572;48.810;9.148;2023-06-19T02:13:15;6.72;;;4.18;;
28311;SDS011;15572;48.810;9.148;2023-06-19T02:18:11;4.97;;;4.13;;
28311;SDS011;15572;48.810;9.148;2023-06-19T02:23:09;4.70;;;4.22;;
28311;SDS011;15572;48.810;9.148;2023-06-19T02:28:06;5.50;;;4.43;;
28311;SDS011;15572;48.810;9.148;2023-06-19T02:33:02;4.75;;;4.30;;
28311;SDS011;15572;48.810;9.148;2023-06-19T02:37:59;5.15;;;4.65;;
28311;SDS011;15572;48.810;9.148;2023-06-19T02:42:57;6.57;;;4.32;;
28311;SDS011;15572;48.810;9.148;2023-06-19T02:47:54;4.85;;;4.10;;
28311;SDS011;15572;48.810;9.148;2023-06-19T02:52:50;5.10;;;3.60;;
28311;SDS011;15572;48.810;9.148;2023-06-19T02:57:47;4.75;;;3.67;;
28311;SDS011;15572;48.810;9.148;2023-06-19T03:02:45;4.22;;;3.40;;
28311;SDS011;15572;48.810;9.148;2023-06-19T03:07:43;4.32;;;3.88;;
28311;SDS011;15572;48.810;9.148;2023-06-19T03:12:39;3.92;;;3.45;;
28311;SDS011;15572;48.810;9.148;2023-06-19T03:17:36;4.25;;;3.55;;
28311;SDS011;15572;48.810;9.148;2023-06-19T03:22:34;4.38;;;3.67;;
28311;SDS011;15572;48.810;9.148;2023-06-19T03:27:30;5.35;;;3.80;;
28311;SDS011;15572;48.810;9.148;2023-06-19T03:32:27;6.03;;;3.72;;
28311;SDS011;15572;48.810;9.148;2023-06-19T03:37:23;3.67;;;3.20;;
28311;SDS011;15572;48.810;9.148;2023-06-19T03:42:21;3.47;;;3.00;;
28311;SDS011;15572;48.810;9.148;2023-06-19T03:47:19;3.85;;;3.10;;
28311;SDS011;15572;48.810;9.148;2023-06-19T03:52:15;4.82;;;3.15;;
28311;SDS011;15572;48.810;9.148;2023-06-19T03:57:11;3.53;;;2.80;;
28311;SDS011;15572;48.810;9.148;2023-06-19T04:02:09;4.10;;;2.83;;
28311;SDS011;15572;48.810;9.148;2023-06-19T04:07:06;2.88;;;2.58;;
28311;SDS011;15572;48.810;9.148;2023-06-19T04:12:02;3.00;;;2.70;;
28311;SDS011;15572;48.810;9.148;2023-06-19T04:16:59;3.88;;;2.70;;
28311;SDS011;15572;48.810;9.148;2023-06-19T04:21:57;4.30;;;2.60;;
28311;SDS011;15572;48.810;9.148;2023-06-19T04:26:54;5.50;;;3.00;;
28311;SDS011;15572;48.810;9.148;2023-06-19T04:31:50;2.88;;;2.65;;
28311;SDS011;15572;48.810;9.148;2023-06-19T04:36:47;6.28;;;2.90;;
28311;SDS011;15572;48.810;9.148;2023-06-19T04:41:44;3.38;;;3.08;;
28311;SDS011;15572;48.810;9.148;2023-06-19T04:46:41;3.80;;;2.80;;
28311;SDS011;15572;48.810;9.148;2023-06-19T04:51:39;3.33;;;2.88;;
28311;SDS011;15572;48.810;9.148;2023-06-19T04:56:35;3.00;;;2.70;;
28311;SDS011;15572;48.810;9.148;2023-06-19T05:01:33;3.78;;;3.30;;
28311;SDS011;15572;48.810;9.148;2023-06-19T05:06:30;4.47;;;3.00;;
28311;SDS011;15572;48.810;9.148;2023-06-19T05:11:27;4.60;;;3.30;;
28311;SDS011;15572;48.810;9.148;2023-06-19T05:16:23;5.00;;;2.85;;
28311;SDS011;15572;48.810;9.148;2023-06-19T05:21:21;3.30;;;2.90;;
28311;SDS011;15572;48.810;9.148;2023-06-19T05:26:17;3.40;;;2.88;;
28311;SDS011;15572;48.810;9.148;2023-06-19T05:31:14;3.30;;;3.00;;
28311;SDS011;15572;48.810;9.148;2023-06-19T05:36:11;2.72;;;2.53;;
28311;SDS011;15572;48.810;9.148;2023-06-19T05:41:09;3.67;;;3.05;;
28311;SDS011;15572;48.810;9.148;2023-06-19T05:46:05;4.95;;;2.70;;
28311;SDS011;15572;48.810;9.148;2023-06-19T05:51:02;3.40;;;3.10;;
28311;SDS011;15572;48.810;9.148;2023-06-19T05:55:58;4.07;;;2.72;;
28311;SDS011;15572;48.810;9.148;2023-06-19T06:00:56;4.13;;;3.30;;
28311;SDS011;15572;48.810;9.148;2023-06-19T06:05:53;3.67;;;3.22;;
28311;SDS011;15572;48.810;9.148;2023-06-19T06:10:57;5.10;;;3.00;;
28311;SDS011;15572;48.810;9.148;2023-06-19T06:15:54;3.22;;;2.92;;
28311;SDS011;15572;48.810;9.148;2023-06-19T06:20:51;3.83;;;3.00;;
28311;SDS011;15572;48.810;9.148;2023-06-19T06:25:48;3.58;;;3.10;;
28311;SDS011;15572;48.810;9.148;2023-06-19T06:30:44;3.90;;;3.10;;
28311;SDS011;15572;48.810;9.148;2023-06-19T06:35:41;4.00;;;3.20;;
28311;SDS011;15572;48.810;9.148;2023-06-19T06:40:40;3.50;;;2.90;;
28311;SDS011;15572;48.810;9.148;2023-06-19T06:45:38;2.60;;;2.40;;
28311;SDS011;15572;48.810;9.148;2023-06-19T06:50:36;3.63;;;2.70;;
28311;SDS011;15572;48.810;9.148;2023-06-19T06:55:33;3.17;;;2.40;;
28311;SDS011;15572;48.810;9.148;2023-06-19T07:00:31;2.50;;;2.30;;
28311;SDS011;15572;48.810;9.148;2023-06-19T07:05:27;2.72;;;2.50;;
28311;SDS011;15572;48.810;9.148;2023-06-19T07:10:25;2.95;;;2.47;;
28311;SDS011;15572;48.810;9.148;2023-06-19T07:15:21;2.78;;;2.58;;
28311;SDS011;15572;48.810;9.148;2023-06-19T07:20:19;3.08;;;2.58;;
28311;SDS011;15572;48.810;9.148;2023-06-19T07:25:16;3.70;;;2.50;;
28311;SDS011;15572;48.810;9.148;2023-06-19T07:30:12;3.65;;;2.60;;
28311;SDS011;15572;48.810;9.148;2023-06-19T07:35:09;3.85;;;2.85;;
28311;SDS011;15572;48.810;9.148;2023-06-19T07:40:08;2.83;;;2.60;;
28311;SDS011;15572;48.810;9.148;2023-06-19T07:45:06;5.70;;;2.60;;
28311;SDS011;15572;48.810;9.148;2023-06-19T07:50:04;2.92;;;2.50;;
28311;SDS011;15572;48.810;9.148;2023-06-19T07:55:01;2.60;;;2.40;;
28311;SDS011;15572;48.810;9.148;2023-06-19T08:00:00;2.20;;;2.00;;
28311;SDS011;15572;48.810;9.148;2023-06-19T08:05:02;2.22;;;2.03;;
28311;SDS011;15572;48.810;9.148;2023-06-19T08:09:58;2.60;;;2.40;;
28311;SDS011;15572;48.810;9.148;2023-06-19T08:14:55;2.72;;;2.30;;
28311;SDS011;15572;48.810;9.148;2023-06-19T08:19:53;2.55;;;2.33;;
28311;SDS011;15572;48.810;9.148;2023-06-19T08:24:49;2.38;;;2.17;;
28311;SDS011;15572;48.810;9.148;2023-06-19T08:29:46;3.03;;;2.15;;
28311;SDS011;15572;48.810;9.148;2023-06-19T08:34:42;6.47;;;2.40;;
28311;SDS011;15572;48.810;9.148;2023-06-19T08:39:40;2.58;;;1.90;;
28311;SDS011;15572;48.810;9.148;2023-06-19T08:44:36;3.40;;;2.40;;
28311;SDS011;15572;48.810;9.148;2023-06-19T08:49:33;3.55;;;2.78;;
28311;SDS011;15572;48.810;9.148;2023-06-19T08:54:30;3.10;;;2.75;;
28311;SDS011;15572;48.810;9.148;2023-06-19T08:59:29;3.03;;;2.72;;
28311;SDS011;15572;48.810;9.148;2023-06-19T09:04:27;4.80;;;2.83;;
28311;SDS011;15572;48.810;9.148;2023-06-19T09:09:26;3.40;;;2.53;;
28311;SDS011;15572;48.810;9.148;2023-06-19T09:14:23;4.15;;;2.85;;
28311;SDS011;15572;48.810;9.148;2023-06-19T09:19:22;3.33;;;3.00;;
28311;SDS011;15572;48.810;9.148;2023-06-19T09:24:18;3.50;;;3.20;;
28311;SDS011;15572;48.810;9.148;2023-06-19T09:29:14;3.00;;;2.70;;
28311;SDS011;15572;48.810;9.148;2023-06-19T09:34:13;4.55;;;3.25;;
28311;SDS011;15572;48.810;9.148;2023-06-19T09:39:10;4.55;;;2.83;;
28311;SDS011;15572;48.810;9.148;2023-06-19T09:44:08;2.92;;;2.72;;
28311;SDS011;15572;48.810;9.148;2023-06-19T09:49:09;3.05;;;2.80;;
28311;SDS011;15572;48.810;9.148;2023-06-19T09:54:08;3.17;;;2.85;;
28311;SDS011;15572;48.810;9.148;2023-06-19T09:59:09;2.80;;;2.60;;
28311;SDS011;15572;48.810;9.148;2023-06-19T10:04:06;4.38;;;3.10;;
28311;SDS011;15572;48.810;9.148;2023-06-19T10:09:06;3.97;;;3.38;;
28311;SDS011;15572;48.810;9.148;2023-06-19T10:14:06;3.83;;;3.30;;
28311;SDS011;15572;48.810;9.148;2023-06-19T10:19:11;3.65;;;3.35;;
28311;SDS011;15572;48.810;9.148;2023-06-19T10:24:13;4.00;;;3.20;;
28311;SDS011;15572;48.810;9.148;2023-06-19T10:29:15;6.18;;;3.45;;
28311;SDS011;15572;48.810;9.148;2023-06-19T10:34:12;4.25;;;3.28;;
28311;SDS011;15572;48.810;9.148;2023-06-19T10:39:08;5.70;;;3.30;;
28311;SDS011;15572;48.810;9.148;2023-06-19T10:44:06;3.60;;;3.30;;
28311;SDS011;15572;48.810;9.148;2023-06-19T10:49:08;4.35;;;3.10;;
28311;SDS011;15572;48.810;9.148;2023-06-19T10:54:06;5.47;;;3.50;;
28311;SDS011;15572;48.810;9.148;2023-06-19T10:59:03;4.68;;;3.30;;
28311;SDS011;15572;48.810;9.148;2023-06-19T11:04:02;4.55;;;3.40;;
28311;SDS011;15572;48.810;9.148;2023-06-19T11:09:01;6.05;;;3.42;;
28311;SDS011;15572;48.810;9.148;2023-06-19T11:13:59;5.45;;;3.30;;
28311;SDS011;15572;48.810;9.148;2023-06-19T11:18:56;3.53;;;3.20;;
28311;SDS011;15572;48.810;9.148;2023-06-19T11:23:53;4.97;;;3.25;;
28311;SDS011;15572;48.810;9.148;2023-06-19T11:28:50;3.72;;;3.05;;
28311;SDS011;15572;48.810;9.148;2023-06-19T11:33:55;6.30;;;3.33;;
28311;SDS011;15572;48.810;9.148;2023-06-19T11:38:53;3.90;;;3.22;;
28311;SDS011;15572;48.810;9.148;2023-06-19T11:43:50;3.53;;;3.22;;
28311;SDS011;15572;48.810;9.148;2023-06-19T11:48:54;3.50;;;3.20;;
28311;SDS011;15572;48.810;9.148;2023-06-19T11:53:52;5.90;;;3.28;;
28311;SDS011;15572;48.810;9.148;2023-06-19T11:58:48;3.70;;;3.40;;
28311;SDS011;15572;48.810;9.148;2023-06-19T12:03:46;5.88;;;3.70;;
28311;SDS011;15572;48.810;9.148;2023-06-19T12:08:42;5.22;;;3.50;;
28311;SDS011;15572;48.810;9.148;2023-06-19T12:13:39;3.92;;;3.55;;
28311;SDS011;15572;48.810;9.148;2023-06-19T12:18:36;3.90;;;3.60;;
28311;SDS011;15572;48.810;9.148;2023-06-19T12:23:34;4.05;;;3.25;;
28311;SDS011;15572;48.810;9.148;2023-06-19T12:28:30;3.97;;;3.40;;
28311;SDS011;15572;48.810;9.148;2023-06-19T12:33:27;5.05;;;3.60;;
28311;SDS011;15572;48.810;9.148;2023-06-19T12:38:28;4.70;;;3.50;;
28311;SDS011;15572;48.810;9.148;2023-06-19T12:43:25;5.47;;;3.30;;
28311;SDS011;15572;48.810;9.148;2023-06-19T12:48:22;3.88;;;3.30;;
28311;SDS011;15572;48.810;9.148;2023-06-19T12:53:18;5.05;;;3.47;;
28311;SDS011;15572;48.810;9.148;2023-06-19T12:58:16;3.75;;;3.42;;
28311;SDS011;15572;48.810;9.148;2023-06-19T13:03:14;7.93;;;3.38;;
28311;SDS011;15572;48.810;9.148;2023-06-19T13:08:10;3.53;;;3.15;;
28311;SDS011;15572;48.810;9.148;2023-06-19T13:13:07;3.70;;;3.40;;
28311;SDS011;15572;48.810;9.148;2023-06-19T13:18:05;6.28;;;3.33;;
28311;SDS011;15572;48.810;9.148;2023-06-19T13:23:03;3.53;;;3.20;;
28311;SDS011;15572;48.810;9.148;2023-06-19T13:28:01;3.78;;;3.40;;
28311;SDS011;15572;48.810;9.148;2023-06-19T13:32:57;4.47;;;3.55;;
28311;SDS011;15572;48.810;9.148;2023-06-19T13:37:54;3.80;;;3.50;;
28311;SDS011;15572;48.810;9.148;2023-06-19T13:42:51;3.45;;;3.15;;
28311;SDS011;15572;48.810;9.148;2023-06-19T13:47:48;4.55;;;3.75;;
28311;SDS011;15572;48.810;9.148;2023-06-19T13:52:44;3.83;;;3.42;;
28311;SDS011;15572;48.810;9.148;2023-06-19T13:57:41;5.68;;;3.63;;
28311;SDS011;15572;48.810;9.148;2023-06-19T14:02:40;4.20;;;3.45;;
28311;SDS011;15572;48.810;9.148;2023-06-19T14:07:37;3.97;;;3.60;;
28311;SDS011;15572;48.810;9.148;2023-06-19T14:12:35;3.78;;;3.42;;
28311;SDS011;15572;48.810;9.148;2023-06-19T14:17:32;3.90;;;3.22;;
28311;SDS011;15572;48.810;9.148;2023-06-19T14:22:29;4.60;;;3.38;;
28311;SDS011;15572;48.810;9.148;2023-06-19T14:27:26;4.53;;;3.50;;
28311;SDS011;15572;48.810;9.148;2023-06-19T14:32:22;3.88;;;3.15;;
28311;SDS011;15572;48.810;9.148;2023-06-19T14:37:19;4.13;;;3.33;;
28311;SDS011;15572;48.810;9.148;2023-06-19T14:42:17;5.07;;;3.35;;
28311;SDS011;15572;48.810;9.148;2023-06-19T14:47:13;4.15;;;3.47;;
28311;SDS011;15572;48.810;9.148;2023-06-19T14:52:10;3.88;;;3.30;;
28311;SDS011;15572;48.810;9.148;2023-06-19T14:57:06;3.28;;;2.97;;
28311;SDS011;15572;48.810;9.148;2023-06-19T15:02:05;3.40;;;3.10;;
28311;SDS011;15572;48.810;9.148;2023-06-19T15:07:02;4.13;;;3.10;;
28311;SDS011;15572;48.810;9.148;2023-06-19T15:11:58;4.35;;;3.60;;
28311;SDS011;15572;48.810;9.148;2023-06-19T15:16:55;5.05;;;3.67;;
28311;SDS011;15572;48.810;9.148;2023-06-19T15:21:53;3.78;;;3.25;;
28311;SDS011;15572;48.810;9.148;2023-06-19T15:26:49;9.25;;;3.40;;
28311;SDS011;15572;48.810;9.148;2023-06-19T15:31:46;6.88;;;3.60;;
28311;SDS011;15572;48.810;9.148;2023-06-19T15:36:42;4.80;;;3.30;;
28311;SDS011;15572;48.810;9.148;2023-06-19T15:41:40;3.40;;;3.10;;
28311;SDS011;15572;48.810;9.148;2023-06-19T15:46:40;6.22;;;3.75;;
28311;SDS011;15572;48.810;9.148;2023-06-19T15:51:36;4.43;;;3.20;;
28311;SDS011;15572;48.810;9.148;2023-06-19T15:56:33;6.60;;;3.67;;
28311;SDS011;15572;48.810;9.148;2023-06-19T16:01:31;4.50;;;3.50;;
28311;SDS011;15572;48.810;9.148;2023-06-19T16:06:27;6.60;;;3.70;;
28311;SDS011;15572;48.810;9.148;2023-06-19T16:11:24;5.55;;;3.70;;
28311;SDS011;15572;48.810;9.148;2023-06-19T16:16:20;4.28;;;3.88;;
28311;SDS011;15572;48.810;9.148;2023-06-19T16:21:18;4.75;;;4.22;;
28311;SDS011;15572;48.810;9.148;2023-06-19T16:26:15;5.47;;;4.47;;
28311;SDS011;15572;48.810;9.148;2023-06-19T16:31:11;6.57;;;4.88;;
28311;SDS011;15572;48.810;9.148;2023-06-19T16:36:10;7.10;;;5.10;;
28311;SDS011;15572;48.810;9.148;2023-06-19T16:41:08;7.60;;;6.10;;
28311;SDS011;15572;48.810;9.148;2023-06-19T16:46:04;16.13;;;13.18;;
28311;SDS011;15572;48.810;9.148;2023-06-19T16:51:01;5.85;;;4.93;;
28311;SDS011;15572;48.810;9.148;2023-06-19T16:55:58;5.53;;;4.90;;
28311;SDS011;15572;48.810;9.148;2023-06-19T17:00:56;5.43;;;4.78;;
28311;SDS011;15572;48.810;9.148;2023-06-19T17:05:52;5.68;;;5.07;;
28311;SDS011;15572;48.810;9.148;2023-06-19T17:10:49;4.93;;;3.80;;
28311;SDS011;15572;48.810;9.148;2023-06-19T17:15:45;5.20;;;4.70;;
28311;SDS011;15572;48.810;9.148;2023-06-19T17:20:43;6.13;;;4.40;;
28311;SDS011;15572;48.810;9.148;2023-06-19T17:25:40;5.03;;;4.30;;
28311;SDS011;15572;48.810;9.148;2023-06-19T17:30:36;5.85;;;4.53;;
28311;SDS011;15572;48.810;9.148;2023-06-19T17:35:35;6.32;;;4.50;;
28311;SDS011;15572;48.810;9.148;2023-06-19T17:40:33;5.65;;;4.43;;
28311;SDS011;15572;48.810;9.148;2023-06-19T17:45:30;5.93;;;4.63;;
28311;SDS011;15572;48.810;9.148;2023-06-19T17:50:26;5.07;;;4.47;;
28311;SDS011;15572;48.810;9.148;2023-06-19T17:55:23;6.55;;;4.55;;
28311;SDS011;15572;48.810;9.148;2023-06-19T18:00:21;8.40;;;5.25;;
28311;SDS011;15572;48.810;9.148;2023-06-19T18:05:17;7.47;;;4.55;;
28311;SDS011;15572;48.810;9.148;2023-06-19T18:10:14;4.90;;;4.40;;
28311;SDS011;15572;48.810;9.148;2023-06-19T18:15:10;6.65;;;4.82;;
28311;SDS011;15572;48.810;9.148;2023-06-19T18:20:09;6.45;;;5.15;;
28311;SDS011;15572;48.810;9.148;2023-06-19T18:25:07;5.22;;;4.72;;
28311;SDS011;15572;48.810;9.148;2023-06-19T18:30:04;5.47;;;4.68;;
28311;SDS011;15572;48.810;9.148;2023-06-19T18:35:01;4.88;;;4.40;;
28311;SDS011;15572;48.810;9.148;2023-06-19T18:39:59;7.35;;;5.00;;
28311;SDS011;15572;48.810;9.148;2023-06-19T18:44:56;6.10;;;5.00;;
28311;SDS011;15572;48.810;9.148;2023-06-19T18:49:52;5.30;;;4.78;;
28311;SDS011;15572;48.810;9.148;2023-06-19T18:54:49;5.63;;;5.03;;
28311;SDS011;15572;48.810;9.148;2023-06-19T18:59:46;8.48;;;4.93;;
28311;SDS011;15572;48.810;9.148;2023-06-19T19:04:43;7.60;;;5.00;;
28311;SDS011;15572;48.810;9.148;2023-06-19T19:09:39;7.15;;;5.25;;
28311;SDS011;15572;48.810;9.148;2023-06-19T19:14:36;6.18;;;5.57;;
28311;SDS011;15572;48.810;9.148;2023-06-19T19:19:34;7.93;;;5.32;;
28311;SDS011;15572;48.810;9.148;2023-06-19T19:24:30;6.35;;;5.68;;
28311;SDS011;15572;48.810;9.148;2023-06-19T19:29:26;7.47;;;5.47;;
28311;SDS011;15572;48.810;9.148;2023-06-19T19:34:23;7.18;;;5.50;;
28311;SDS011;15572;48.810;9.148;2023-06-19T19:39:21;6.90;;;6.15;;
28311;SDS011;15572;48.810;9.148;2023-06-19T19:44:17;6.65;;;5.65;;
28311;SDS011;15572;48.810;9.148;2023-06-19T19:49:14;7.65;;;5.63;;
28311;SDS011;15572;48.810;9.148;2023-06-19T19:54:10;7.28;;;5.53;;
28311;SDS011;15572;48.810;9.148;2023-06-19T19:59:08;7.55;;;5.60;;
28311;SDS011;15572;48.810;9.148;2023-06-19T20:04:04;8.05;;;6.15;;
28311;SDS011;15572;48.810;9.148;2023-06-19T20:09:01;9.20;;;6.20;;
28311;SDS011;15572;48.810;9.148;2023-06-19T20:13:58;7.78;;;6.20;;
28311;SDS011;15572;48.810;9.148;2023-06-19T20:18:56;7.00;;;6.00;;
28311;SDS011;15572;48.810;9.148;2023-06-19T20:23:52;9.68;;;6.47;;
28311;SDS011;15572;48.810;9.148;2023-06-19T20:28:49;9.40;;;6.90;;
28311;SDS011;15572;48.810;9.148;2023-06-19T20:33:46;7.20;;;6.43;;
28311;SDS011;15572;48.810;9.148;2023-06-19T20:38:44;9.77;;;6.28;;
28311;SDS011;15572;48.810;9.148;2023-06-19T20:43:41;7.80;;;6.38;;
28311;SDS011;15572;48.810;9.148;2023-06-19T20:48:41;7.70;;;6.18;;
28311;SDS011;15572;48.810;9.148;2023-06-19T20:53:38;7.07;;;6.38;;
28311;SDS011;15572;48.810;9.148;2023-06-19T20:58:36;7.00;;;6.25;;
28311;SDS011;15572;48.810;9.148;2023-06-19T21:03:32;7.00;;;6.30;;
28311;SDS011;15572;48.810;9.148;2023-06-19T21:08:28;6.97;;;6.28;;
28311;SDS011;15572;48.810;9.148;2023-06-19T21:13:25;7.40;;;6.45;;
28311;SDS011;15572;48.810;9.148;2023-06-19T21:18:23;7.65;;;6.85;;
28311;SDS011;15572;48.810;9.148;2023-06-19T21:23:23;7.95;;;6.63;;
28311;SDS011;15572;48.810;9.148;2023-06-19T21:28:20;7.20;;;6.50;;
28311;SDS011;15572;48.810;9.148;2023-06-19T21:33:16;10.50;;;7.43;;
28311;SDS011;15572;48.810;9.148;2023-06-19T21:38:14;9.75;;;7.22;;
28311;SDS011;15572;48.810;9.148;2023-06-19T21:43:10;7.95;;;7.15;;
28311;SDS011;15572;48.810;9.148;2023-06-19T21:48:07;10.13;;;6.50;;
28311;SDS011;15572;48.810;9.148;2023-06-19T21:53:03;7.63;;;6.68;;
28311;SDS011;15572;48.810;9.148;2023-06-19T21:58:01;7.25;;;6.55;;
28311;SDS011;15572;48.810;9.148;2023-06-19T22:02:58;8.70;;;7.78;;
28311;SDS011;15572;48.810;9.148;2023-06-19T22:07:54;7.90;;;7.10;;
28311;SDS011;15572;48.810;9.148;2023-06-19T22:12:51;8.30;;;7.38;;
28311;SDS011;15572;48.810;9.148;2023-06-19T22:17:48;8.70;;;7.50;;
28311;SDS011;15572;48.810;9.148;2023-06-19T22:22:45;8.38;;;7.32;;
28311;SDS011;15572;48.810;9.148;2023-06-19T22:27:41;7.65;;;6.88;;
28311;SDS011;15572;48.810;9.148;2023-06-19T22:32:39;7.78;;;6.80;;
28311;SDS011;15572;48.810;9.148;2023-06-19T22:37:36;7.95;;;6.63;;
28311;SDS011;15572;48.810;9.148;2023-06-19T22:42:33;8.82;;;7.05;;
28311;SDS011;15572;48.810;9.148;2023-06-19T22:47:30;8.90;;;7.47;;
28311;SDS011;15572;48.810;9.148;2023-06-19T22:52:26;8.07;;;7.13;;
28311;SDS011;15572;48.810;9.148;2023-06-19T22:57:25;9.30;;;7.68;;
28311;SDS011;15572;48.810;9.148;2023-06-19T23:02:21;9.85;;;6.90;;
28311;SDS011;15572;48.810;9.148;2023-06-19T23:07:18;8.80;;;7.40;;
28311;SDS011;15572;48.810;9.148;2023-06-19T23:12:14;10.77;;;7.18;;
28311;SDS011;15572;48.810;9.148;2023-06-19T23:17:12;8.20;;;7.40;;
28311;SDS011;15572;48.810;9.148;2023-06-19T23:22:08;7.50;;;6.55;;
28311;SDS011;15572;48.810;9.148;2023-06-19T23:27:05;7.93;;;7.13;;
28311;SDS011;15572;48.810;9.148;2023-06-19T23:32:02;8.45;;;6.68;;
28311;SDS011;15572;48.810;9.148;2023-06-19T23:37:00;7.53;;;6.80;;
28311;SDS011;15572;48.810;9.148;2023-06-19T23:41:57;8.00;;;7.10;;
28311;SDS011;15572;48.810;9.148;2023-06-19T23:46:57;8.98;;;7.35;;
28311;SDS011;15572;48.810;9.148;2023-06-19T23:51:54;8.75;;;7.35;;
28311;SDS011;15572;48.810;9.148;2023-06-19T23:56:51;8.45;;;7.07;;
